Time;durP1;ratioP1;P1;durP2;ratioP2;P2;SDS_P1;SDS_P2;PMS_P1;PMS_P2;Temp;Humidity;BMP_temperature;BMP_pressure;BME280_temperature;BME280_humidity;BME280_pressure;Samples;Min_cycle;Max_cycle;Signal;HPM_P1;HPM_P2
2022/01/06 00:00:47;;;;;;;12.38;3.80;;;;;;;6.05;57.15;98635.31;5092210;28;20498;-47
2022/01/06 00:03:14;;;;;;;12.90;4.10;;;;;;;6.10;56.62;98639.03;5092163;28;20020;-48
2022/01/06 00:05:39;;;;;;;15.75;4.38;;;;;;;6.15;56.95;98630.69;5092013;28;20020;-47
2022/01/06 00:08:05;;;;;;;14.40;4.97;;;;;;;6.20;56.71;98639.59;5092111;28;20035;-48
2022/01/06 00:10:31;;;;;;;10.00;3.88;;;;;;;6.15;56.52;98634.09;5092045;28;20168;-47
2022/01/06 00:18:25;;;;;;;17.90;4.20;;;;;;;6.17;57.03;98629.53;5092083;28;20421;-47
2022/01/06 00:23:42;;;;;;;11.90;3.70;;;;;;;6.25;56.79;98639.09;5091636;28;20059;-48
2022/01/06 00:26:08;;;;;;;10.77;2.97;;;;;;;6.28;56.69;98636.13;5091986;28;20028;-48
2022/01/06 00:28:35;;;;;;;13.73;3.42;;;;;;;6.20;56.92;98637.00;5090545;28;20023;-48
2022/01/06 00:31:02;;;;;;;9.85;3.00;;;;;;;6.14;57.04;98636.88;5090546;28;20055;-47
2022/01/06 00:33:30;;;;;;;9.30;2.75;;;;;;;6.12;57.16;98634.44;5091831;28;20023;-49
2022/01/06 00:35:56;;;;;;;14.13;4.00;;;;;;;6.06;57.28;98631.72;5091851;28;20048;-48
2022/01/06 00:38:25;;;;;;;7.78;3.20;;;;;;;5.95;57.43;98643.34;5091787;28;20056;-48
2022/01/06 00:40:51;;;;;;;8.23;2.40;;;;;;;5.84;57.79;98630.69;5091719;28;20024;-47
2022/01/06 00:43:17;;;;;;;5.15;2.22;;;;;;;5.76;57.89;98647.16;5091860;28;20370;-47
2022/01/06 00:45:43;;;;;;;10.00;2.40;;;;;;;5.82;58.06;98636.06;5090342;28;20031;-48
2022/01/06 00:48:10;;;;;;;11.90;3.92;;;;;;;5.80;58.35;98648.44;5091703;28;20016;-48
2022/01/06 00:50:40;;;;;;;7.70;2.08;;;;;;;5.76;58.23;98649.78;5091710;28;20024;-48
2022/01/06 00:53:06;;;;;;;9.82;2.60;;;;;;;5.68;58.34;98652.41;5091750;28;20039;-48
2022/01/06 00:55:36;;;;;;;9.57;2.08;;;;;;;5.65;58.73;98656.16;5090283;28;20024;-48
2022/01/06 00:58:03;;;;;;;7.68;2.20;;;;;;;5.64;58.75;98658.94;5091636;28;20024;-47
2022/01/06 01:00:38;;;;;;;5.47;1.98;;;;;;;5.59;59.00;98662.03;5090251;28;20405;-48
2022/01/06 01:03:14;;;;;;;10.30;2.57;;;;;;;5.60;59.57;98669.66;5091670;28;20048;-48
2022/01/06 01:05:41;;;;;;;12.95;2.50;;;;;;;5.63;59.51;98670.31;5091482;28;20028;-48
2022/01/06 01:08:08;;;;;;;10.98;3.97;;;;;;;5.74;59.31;98673.38;5094105;28;20036;-48
2022/01/06 01:10:35;;;;;;;9.18;2.55;;;;;;;5.85;59.06;98672.16;5095356;28;20051;-47
2022/01/06 01:13:01;;;;;;;14.10;5.00;;;;;;;6.00;58.90;98678.31;5095437;28;20031;-48
2022/01/06 01:15:28;;;;;;;8.00;3.10;;;;;;;6.08;58.97;98674.06;5094016;28;20466;-48
2022/01/06 01:17:54;;;;;;;10.70;3.55;;;;;;;6.04;58.77;98670.16;5095366;28;20413;-47
2022/01/06 01:20:21;;;;;;;9.57;3.08;;;;;;;6.07;58.40;98677.63;5093926;28;20619;-48
2022/01/06 01:22:48;;;;;;;9.02;2.55;;;;;;;6.09;58.15;98676.47;5095214;28;20028;-48
2022/01/06 01:25:14;;;;;;;281.98;205.52;;;;;;;6.09;58.69;98683.47;5093562;28;20048;-48
2022/01/06 01:27:43;;;;;;;31.88;21.60;;;;;;;6.09;58.15;98686.88;5095104;28;20099;-48
2022/01/06 01:30:14;;;;;;;36.28;20.95;;;;;;;6.10;58.42;98685.13;5093754;28;20111;-48
2022/01/06 01:32:46;;;;;;;11.60;4.75;;;;;;;6.10;58.64;98679.91;5093769;28;20036;-48
2022/01/06 01:35:13;;;;;;;12.10;3.35;;;;;;;6.09;57.86;98691.28;5093680;28;20409;-48
2022/01/06 01:37:39;;;;;;;11.38;2.95;;;;;;;6.05;58.18;98696.03;5093660;28;20052;-48
2022/01/06 01:40:07;;;;;;;12.02;3.20;;;;;;;6.05;58.29;98703.03;5094925;28;20123;-48
2022/01/06 01:42:34;;;;;;;16.05;3.95;;;;;;;6.14;58.30;98702.03;5094937;28;20489;-48
2022/01/06 01:45:01;;;;;;;12.88;3.35;;;;;;;6.14;58.16;98712.47;5094731;28;20410;-49
2022/01/06 01:47:40;;;;;;;8.18;2.80;;;;;;;6.22;58.29;98709.81;5094761;28;20024;-49
2022/01/06 01:50:18;;;;;;;11.23;3.10;;;;;;;6.26;57.34;98710.25;5094727;28;20115;-48
2022/01/06 01:52:53;;;;;;;10.05;2.83;;;;;;;6.23;57.17;98714.00;5094710;28;20393;-47
2022/01/06 01:55:37;;;;;;;8.10;2.83;;;;;;;6.20;57.84;98717.78;5094678;28;20541;-48
2022/01/06 01:58:03;;;;;;;11.75;3.42;;;;;;;6.12;57.82;98710.00;5093277;28;20444;-48
2022/01/06 02:00:30;;;;;;;11.55;2.65;;;;;;;6.15;57.65;98714.06;5094400;28;20486;-48
2022/01/06 02:02:57;;;;;;;16.42;4.38;;;;;;;6.28;57.82;98714.31;5093145;28;20074;-49
2022/01/06 02:05:27;;;;;;;9.98;3.05;;;;;;;6.36;57.02;98711.66;5094303;28;20481;-48
2022/01/06 02:07:55;;;;;;;11.98;2.97;;;;;;;6.43;57.34;98711.78;5094380;28;20028;-49
2022/01/06 02:10:21;;;;;;;12.10;3.17;;;;;;;6.49;56.97;98712.88;5094340;28;20442;-48
2022/01/06 02:12:49;;;;;;;14.20;3.15;;;;;;;6.53;57.08;98707.16;5094534;28;20488;-48
2022/01/06 02:15:16;;;;;;;14.30;3.30;;;;;;;6.56;56.26;98717.25;5094167;28;20028;-47
2022/01/06 02:17:43;;;;;;;11.32;3.78;;;;;;;6.57;55.99;98713.63;5092438;28;20031;-48
2022/01/06 02:20:12;;;;;;;13.70;2.80;;;;;;;6.55;56.11;98707.78;5094178;28;20028;-48
2022/01/06 02:22:38;;;;;;;10.98;2.60;;;;;;;6.53;55.74;98706.34;5094094;28;20031;-48
2022/01/06 02:25:17;;;;;;;8.43;3.58;;;;;;;6.46;56.95;98719.28;5093697;28;20050;-48
2022/01/06 02:27:46;;;;;;;11.57;2.88;;;;;;;6.46;56.77;98719.28;5092628;28;20080;-48
2022/01/06 02:30:12;;;;;;;11.88;2.83;;;;;;;6.49;56.55;98720.72;5093925;28;20508;-48
2022/01/06 02:32:39;;;;;;;12.40;3.38;;;;;;;6.51;56.51;98718.75;5093858;28;20020;-48
2022/01/06 02:35:10;;;;;;;11.18;3.38;;;;;;;6.43;56.56;98727.41;5093829;28;20089;-48
2022/01/06 02:37:36;;;;;;;9.50;3.05;;;;;;;6.38;57.09;98719.31;5092516;28;20040;-48
2022/01/06 02:40:07;;;;;;;17.45;3.38;;;;;;;6.32;57.55;98720.81;5093764;28;20020;-47
2022/01/06 02:42:33;;;;;;;13.88;3.78;;;;;;;6.35;57.30;98730.06;5092441;28;20046;-48
2022/01/06 02:44:59;;;;;;;12.88;3.13;;;;;;;6.33;57.82;98724.22;5093640;28;20413;-48
2022/01/06 02:47:25;;;;;;;15.50;4.28;;;;;;;6.33;57.54;98725.03;5093559;28;20024;-48
2022/01/06 02:49:51;;;;;;;8.90;4.35;;;;;;;6.31;57.53;98732.22;5093528;28;20021;-48
2022/01/06 02:52:16;;;;;;;16.30;3.88;;;;;;;6.25;57.94;98724.28;5093434;28;20545;-49
2022/01/06 02:54:42;;;;;;;13.07;3.45;;;;;;;6.26;57.73;98737.13;5093422;28;20493;-48
2022/01/06 02:57:09;;;;;;;12.15;4.00;;;;;;;6.24;58.13;98735.66;5092068;28;20047;-48
2022/01/06 02:59:35;;;;;;;16.92;4.22;;;;;;;6.26;58.67;98734.53;5093381;28;20393;-48
2022/01/06 03:02:01;;;;;;;12.02;3.75;;;;;;;6.24;58.62;98731.28;5093298;28;20107;-48
2022/01/06 03:04:26;;;;;;;14.43;3.50;;;;;;;6.24;58.34;98726.06;5093174;28;20082;-47
2022/01/06 03:06:52;;;;;;;9.55;3.35;;;;;;;6.20;58.81;98733.41;5093192;28;20481;-47
2022/01/06 03:09:25;;;;;;;10.10;3.22;;;;;;;6.18;58.71;98735.38;5093127;28;20042;-48
2022/01/06 03:11:53;;;;;;;12.63;3.35;;;;;;;6.10;58.82;98726.81;5093147;28;20035;-49
2022/01/06 03:14:20;;;;;;;12.35;3.22;;;;;;;6.02;58.71;98732.03;5092979;28;20107;-48
2022/01/06 03:16:46;;;;;;;14.13;3.28;;;;;;;6.03;59.11;98733.66;5093024;28;20089;-47
2022/01/06 03:19:11;;;;;;;14.00;3.15;;;;;;;6.06;58.96;98738.56;5093006;28;20020;-47
2022/01/06 03:21:37;;;;;;;10.73;3.47;;;;;;;6.06;59.32;98739.34;5092879;28;20107;-48
2022/01/06 03:24:03;;;;;;;14.00;3.78;;;;;;;6.07;59.40;98730.53;5088858;28;20399;-48
2022/01/06 03:26:28;;;;;;;16.50;3.72;;;;;;;6.04;59.32;98737.88;5093541;28;20048;-48
2022/01/06 03:28:54;;;;;;;14.40;4.18;;;;;;;6.09;58.91;98739.00;5092075;28;20044;-46
2022/01/06 03:31:20;;;;;;;11.00;4.30;;;;;;;6.04;59.39;98738.72;5092706;28;20023;-47
2022/01/06 03:33:46;;;;;;;8.88;2.88;;;;;;;6.06;58.91;98739.34;5092709;28;20024;-47
2022/01/06 03:36:11;;;;;;;16.55;3.53;;;;;;;6.14;59.38;98754.94;5092644;28;20063;-48
2022/01/06 03:38:37;;;;;;;14.85;4.75;;;;;;;6.18;58.89;98758.84;5092639;28;20366;-48
2022/01/06 03:41:03;;;;;;;9.57;4.15;;;;;;;6.20;58.86;98753.47;5092583;28;20465;-48
2022/01/06 03:43:28;;;;;;;13.98;3.70;;;;;;;6.20;59.19;98754.28;5092541;28;20062;-47
2022/01/06 03:45:54;;;;;;;14.00;3.78;;;;;;;6.20;59.42;98750.84;5092436;28;20482;-48
2022/01/06 03:48:20;;;;;;;14.35;3.80;;;;;;;6.16;59.71;98744.38;5092447;28;20069;-47
2022/01/06 03:50:46;;;;;;;14.98;3.75;;;;;;;6.18;59.43;98743.19;5091079;28;20024;-48
2022/01/06 03:53:11;;;;;;;14.27;3.70;;;;;;;6.16;59.50;98742.56;5092373;28;20397;-46
2022/01/06 03:55:39;;;;;;;10.85;3.20;;;;;;;6.11;59.89;98750.06;5092301;28;20028;-48
2022/01/06 03:58:05;;;;;;;16.80;3.60;;;;;;;6.06;59.71;98752.38;5092339;28;20386;-48
2022/01/06 04:00:31;;;;;;;8.80;2.95;;;;;;;6.07;60.14;98751.38;5092154;28;20016;-48
2022/01/06 04:02:57;;;;;;;10.07;3.55;;;;;;;6.16;60.04;98755.59;5092244;28;20023;-49
2022/01/06 04:05:22;;;;;;;12.98;3.25;;;;;;;6.22;60.52;98753.28;5092034;28;20031;-47
2022/01/06 04:07:48;;;;;;;13.05;3.58;;;;;;;6.29;60.23;98762.84;5092215;28;20016;-48
2022/01/06 04:10:14;;;;;;;10.75;3.58;;;;;;;6.32;60.04;98757.31;5092071;28;20024;-48
2022/01/06 04:12:40;;;;;;;17.52;6.43;;;;;;;6.31;59.81;98766.09;5090741;28;20402;-48
2022/01/06 04:15:12;;;;;;;13.43;3.85;;;;;;;6.21;60.17;98755.06;5092072;28;20039;-48
2022/01/06 04:17:39;;;;;;;11.35;2.92;;;;;;;6.21;59.80;98762.88;5092088;28;20028;-48
2022/01/06 04:20:07;;;;;;;14.90;4.22;;;;;;;6.21;60.20;98762.88;5092020;28;20024;-49
2022/01/06 04:22:33;;;;;;;14.23;3.50;;;;;;;6.17;59.94;98762.41;5091926;28;20027;-48
2022/01/06 04:25:00;;;;;;;13.13;4.82;;;;;;;6.12;59.58;98772.53;5090120;28;20059;-48
2022/01/06 04:27:26;;;;;;;7.72;3.03;;;;;;;6.03;60.47;98764.94;5092189;28;20393;-48
2022/01/06 04:29:52;;;;;;;12.50;3.28;;;;;;;5.98;60.83;98760.22;5091910;28;20518;-48
2022/01/06 04:32:17;;;;;;;14.80;3.85;;;;;;;5.95;60.19;98760.56;5091831;28;20023;-46
2022/01/06 04:34:43;;;;;;;11.93;2.95;;;;;;;5.92;60.49;98773.91;5091860;28;20093;-49
2022/01/06 04:37:08;;;;;;;10.15;3.25;;;;;;;5.93;60.83;98759.88;5090466;28;20498;-48
2022/01/06 04:39:34;;;;;;;12.45;3.40;;;;;;;5.90;61.24;98762.84;5091800;28;20024;-47
2022/01/06 04:42:00;;;;;;;11.15;3.03;;;;;;;5.96;61.59;98770.81;5095713;28;20024;-48
2022/01/06 04:44:26;;;;;;;16.20;3.38;;;;;;;5.96;61.13;98767.41;5094578;28;20028;-47
2022/01/06 04:46:51;;;;;;;11.60;3.83;;;;;;;6.00;61.65;98779.91;5095839;28;20024;-48
2022/01/06 04:49:17;;;;;;;16.95;4.18;;;;;;;6.06;61.12;98775.81;5095903;28;20027;-48
2022/01/06 04:51:43;;;;;;;10.85;3.10;;;;;;;6.08;61.54;98779.06;5094501;28;20371;-49
2022/01/06 04:54:08;;;;;;;13.20;3.60;;;;;;;6.17;61.22;98778.03;5095767;28;20020;-48
2022/01/06 04:56:37;;;;;;;16.75;3.60;;;;;;;6.22;61.60;98790.59;5095711;28;20020;-48
2022/01/06 04:59:08;;;;;;;14.93;4.35;;;;;;;6.34;60.77;98784.00;5095659;28;20028;-48
2022/01/06 05:01:36;;;;;;;13.85;3.20;;;;;;;6.42;60.66;98779.72;5095697;28;20038;-48
2022/01/06 05:04:02;;;;;;;15.55;3.60;;;;;;;6.37;60.72;98788.06;5095553;28;20027;-48
2022/01/06 05:06:28;;;;;;;10.15;2.97;;;;;;;6.26;60.53;98778.84;5095530;28;20139;-48
2022/01/06 05:08:54;;;;;;;20.90;3.58;;;;;;;6.16;60.73;98784.25;5095490;28;20107;-48
2022/01/06 05:11:20;;;;;;;17.50;3.30;;;;;;;6.15;61.16;98793.03;5096006;28;20020;-48
2022/01/06 05:13:46;;;;;;;11.73;3.38;;;;;;;6.19;60.78;98794.31;5094110;28;20074;-48
2022/01/06 05:16:13;;;;;;;16.42;4.35;;;;;;;6.27;61.18;98796.09;5093998;28;20509;-48
2022/01/06 05:18:38;;;;;;;15.32;4.40;;;;;;;6.29;61.10;98801.94;5095355;28;20020;-48
2022/01/06 05:21:08;;;;;;;18.42;4.07;;;;;;;6.29;60.48;98796.72;5095282;28;20082;-48
2022/01/06 05:23:34;;;;;;;10.57;3.22;;;;;;;6.25;60.92;98805.06;5095283;28;20030;-49
2022/01/06 05:26:00;;;;;;;13.32;4.68;;;;;;;6.30;61.25;98803.56;5094833;28;20455;-48
2022/01/06 05:28:26;;;;;;;19.33;3.70;;;;;;;6.37;60.72;98811.53;5095179;28;20406;-48
2022/01/06 05:30:52;;;;;;;12.52;3.90;;;;;;;6.35;60.93;98806.47;5095094;28;20485;-47
2022/01/06 05:33:18;;;;;;;14.32;3.72;;;;;;;6.33;61.14;98813.66;5095027;28;20486;-48
2022/01/06 05:35:44;;;;;;;15.95;5.28;;;;;;;6.31;60.93;98817.41;5095029;28;20028;-48
2022/01/06 05:38:10;;;;;;;16.45;4.53;;;;;;;6.39;60.81;98822.59;5094928;28;20024;-48
2022/01/06 05:40:36;;;;;;;15.73;5.22;;;;;;;6.45;61.11;98811.47;5094858;28;20081;-48
2022/01/06 05:43:02;;;;;;;13.02;4.25;;;;;;;6.47;60.66;98809.50;5093570;28;20107;-49
2022/01/06 05:45:29;;;;;;;16.48;4.07;;;;;;;6.49;60.61;98814.56;5093389;28;20035;-49
2022/01/06 05:47:55;;;;;;;22.00;4.57;;;;;;;6.48;60.06;98816.38;5094786;28;20026;-47
2022/01/06 05:50:22;;;;;;;19.48;4.05;;;;;;;6.48;60.21;98818.97;5094698;28;20020;-47
2022/01/06 05:52:48;;;;;;;21.02;4.15;;;;;;;6.46;60.62;98801.84;5093953;28;20047;-48
2022/01/06 05:55:14;;;;;;;14.10;3.40;;;;;;;6.35;60.57;98819.50;5093223;28;20082;-47
2022/01/06 05:57:39;;;;;;;14.07;3.05;;;;;;;6.33;60.68;98812.84;5094627;28;20565;-48
2022/01/06 06:00:08;;;;;;;12.15;3.58;;;;;;;6.29;61.22;98811.56;5094524;28;20111;-48
2022/01/06 06:02:34;;;;;;;15.90;4.30;;;;;;;6.27;60.55;98816.94;5094537;28;20054;-48
2022/01/06 06:04:59;;;;;;;11.25;2.90;;;;;;;6.28;60.52;98829.00;5094350;28;20511;-47
2022/01/06 06:07:25;;;;;;;16.02;3.60;;;;;;;6.29;61.03;98819.38;5094367;28;20027;-48
2022/01/06 06:09:51;;;;;;;13.40;3.47;;;;;;;6.35;61.02;98824.72;5094373;28;20023;-48
2022/01/06 06:12:17;;;;;;;12.57;3.25;;;;;;;6.34;60.17;98817.09;5094253;28;20051;-48
2022/01/06 06:14:43;;;;;;;8.38;2.83;;;;;;;6.31;60.83;98822.63;5094136;28;20097;-48
2022/01/06 06:17:09;;;;;;;19.20;3.55;;;;;;;6.19;60.61;98825.59;5092883;28;20020;-47
2022/01/06 06:19:36;;;;;;;20.92;5.00;;;;;;;6.07;60.74;98829.53;5094247;28;20024;-48
2022/01/06 06:22:02;;;;;;;14.00;3.42;;;;;;;5.97;60.55;98828.94;5092778;28;20024;-49
2022/01/06 06:24:28;;;;;;;14.70;2.97;;;;;;;5.81;60.74;98829.75;5092706;28;20035;-49
2022/01/06 06:26:53;;;;;;;14.38;3.40;;;;;;;5.65;61.59;98835.78;5092479;28;20044;-48
2022/01/06 06:29:20;;;;;;;16.77;3.65;;;;;;;5.52;62.38;98836.28;5093964;28;20024;-48
2022/01/06 06:31:46;;;;;;;22.88;4.32;;;;;;;5.54;62.08;98836.16;5093995;28;20016;-49
2022/01/06 06:34:12;;;;;;;11.18;3.17;;;;;;;5.56;62.13;98834.19;5092585;28;20020;-48
2022/01/06 06:36:38;;;;;;;14.00;3.38;;;;;;;5.64;62.13;98835.97;5093832;28;20020;-48
2022/01/06 06:39:05;;;;;;;11.50;3.63;;;;;;;5.70;62.10;98833.50;5092493;28;20028;-48
2022/01/06 06:41:31;;;;;;;14.13;3.40;;;;;;;5.70;61.54;98841.31;5093723;28;20107;-48
2022/01/06 06:43:57;;;;;;;10.13;3.30;;;;;;;5.71;62.38;98835.13;5092271;28;20131;-48
2022/01/06 06:46:23;;;;;;;14.52;3.40;;;;;;;5.74;61.98;98839.22;5093623;28;20028;-48
2022/01/06 06:48:48;;;;;;;12.18;3.33;;;;;;;5.70;61.82;98836.13;5092274;28;20524;-48
2022/01/06 06:51:15;;;;;;;13.23;3.00;;;;;;;5.59;61.59;98839.88;5093553;28;20114;-48
2022/01/06 06:53:42;;;;;;;77.35;52.80;;;;;;;5.55;61.86;98836.00;5092207;28;20024;-48
2022/01/06 06:56:07;;;;;;;39.08;22.70;;;;;;;5.47;62.19;98842.97;5092046;28;20107;-48
2022/01/06 06:58:33;;;;;;;45.35;31.95;;;;;;;5.52;62.22;98844.09;5093389;28;20051;-47
2022/01/06 07:00:59;;;;;;;21.02;7.80;;;;;;;5.63;62.18;98847.34;5093372;28;20466;-47
2022/01/06 07:03:24;;;;;;;16.27;6.70;;;;;;;5.83;61.62;98853.03;5092623;28;20021;-48
2022/01/06 07:05:50;;;;;;;10.15;3.88;;;;;;;5.97;61.45;98841.94;5092772;28;20024;-48
2022/01/06 07:08:16;;;;;;;14.00;4.50;;;;;;;6.08;61.31;98840.81;5091895;28;20410;-48
2022/01/06 07:10:42;;;;;;;16.77;3.72;;;;;;;6.22;60.06;98844.47;5093149;28;20489;-48
2022/01/06 07:13:09;;;;;;;16.88;3.85;;;;;;;6.28;60.49;98843.81;5093135;28;20054;-48
2022/01/06 07:15:41;;;;;;;14.38;3.33;;;;;;;6.35;60.41;98856.00;5091774;28;20024;-48
2022/01/06 07:18:07;;;;;;;13.65;3.38;;;;;;;6.47;60.00;98866.88;5093295;28;20024;-48
2022/01/06 07:20:33;;;;;;;10.55;3.38;;;;;;;6.53;59.37;98862.78;5092982;28;20035;-48
2022/01/06 07:22:59;;;;;;;12.77;4.07;;;;;;;6.59;59.81;98865.50;5092924;28;20028;-48
2022/01/06 07:25:25;;;;;;;19.98;4.47;;;;;;;6.63;59.56;98868.59;5091100;28;20044;-48
2022/01/06 07:27:51;;;;;;;12.63;3.20;;;;;;;6.73;59.01;98874.41;5091543;28;20119;-48
2022/01/06 07:30:17;;;;;;;16.83;4.93;;;;;;;6.83;58.58;98881.22;5092771;28;20091;-48
2022/01/06 07:32:48;;;;;;;14.32;3.47;;;;;;;6.83;58.44;98886.44;5092744;28;20070;-48
2022/01/06 07:35:15;;;;;;;26.38;7.93;;;;;;;6.86;58.35;98886.91;5092692;28;20028;-47
2022/01/06 07:37:41;;;;;;;20.52;3.90;;;;;;;6.92;58.93;98883.63;5092628;28;20055;-49
2022/01/06 07:40:09;;;;;;;15.98;4.18;;;;;;;6.98;58.64;98877.72;5091262;28;20027;-48
2022/01/06 07:42:35;;;;;;;20.95;4.35;;;;;;;7.10;58.37;98887.75;5091272;28;20517;-48
2022/01/06 07:45:02;;;;;;;16.80;4.63;;;;;;;7.11;57.93;98884.97;5092444;28;20020;-47
2022/01/06 07:47:29;;;;;;;18.98;3.63;;;;;;;7.03;57.89;98894.66;5092496;28;20078;-47
2022/01/06 07:49:55;;;;;;;27.30;4.97;;;;;;;6.95;58.01;98901.53;5092494;28;20016;-48
2022/01/06 07:52:24;;;;;;;15.77;3.67;;;;;;;6.99;57.80;98896.78;5092331;28;20632;-48
2022/01/06 07:54:49;;;;;;;15.90;3.95;;;;;;;7.09;57.95;98899.97;5092353;28;20394;-49
2022/01/06 07:57:15;;;;;;;12.82;3.22;;;;;;;7.13;57.82;98895.25;5090879;28;20024;-48
2022/01/06 07:59:41;;;;;;;17.73;4.68;;;;;;;7.11;57.52;98895.41;5092357;28;20134;-47
2022/01/06 08:02:08;;;;;;;20.40;4.82;;;;;;;7.07;57.45;98909.78;5092227;28;20043;-48
2022/01/06 08:04:35;;;;;;;10.90;2.90;;;;;;;7.05;57.27;98898.72;5092153;28;20024;-49
2022/01/06 08:07:01;;;;;;;15.93;3.25;;;;;;;7.08;56.74;98902.75;5092104;28;20031;-48
2022/01/06 08:09:27;;;;;;;16.17;3.95;;;;;;;7.12;57.53;98904.03;5092229;28;20016;-49
2022/01/06 08:11:52;;;;;;;16.65;5.13;;;;;;;7.26;57.34;98910.31;5092137;28;20493;-48
2022/01/06 08:14:19;;;;;;;16.48;3.65;;;;;;;7.44;56.39;98907.44;5092121;28;20520;-48
2022/01/06 08:16:44;;;;;;;14.52;3.90;;;;;;;7.51;55.87;98916.19;5091740;28;20031;-48
2022/01/06 08:19:10;;;;;;;14.98;3.58;;;;;;;7.60;56.21;98912.53;5090681;28;20028;-47
2022/01/06 08:21:37;;;;;;;14.95;3.28;;;;;;;7.70;55.96;98907.88;5092044;28;20046;-48
2022/01/06 08:24:03;;;;;;;19.20;3.67;;;;;;;7.68;55.55;98909.84;5090641;28;20058;-47
2022/01/06 08:26:31;;;;;;;10.43;2.70;;;;;;;7.71;55.67;98908.69;5091622;28;20054;-49
2022/01/06 08:28:57;;;;;;;15.48;4.07;;;;;;;7.74;56.16;98914.34;5091899;28;20043;-48
2022/01/06 08:31:23;;;;;;;8.38;2.83;;;;;;;7.75;54.94;98915.19;5091902;28;20565;-48
2022/01/06 08:33:48;;;;;;;16.13;3.30;;;;;;;7.64;55.26;98913.00;5090572;28;20032;-48
2022/01/06 08:36:15;;;;;;;13.55;3.78;;;;;;;7.51;55.69;98924.84;5090477;28;20459;-48
2022/01/06 08:38:41;;;;;;;12.45;3.47;;;;;;;7.48;55.72;98926.97;5090505;28;20024;-49
2022/01/06 08:41:08;;;;;;;19.48;3.92;;;;;;;7.34;55.82;98923.31;5090454;28;20047;-49
2022/01/06 08:43:34;;;;;;;14.38;3.38;;;;;;;7.16;56.41;98931.41;5092114;28;20034;-48
2022/01/06 08:46:02;;;;;;;15.15;3.55;;;;;;;7.04;56.05;98930.19;5091658;28;20045;-48
2022/01/06 08:48:30;;;;;;;18.23;3.75;;;;;;;7.06;56.67;98930.81;5091764;28;20112;-48
2022/01/06 08:50:56;;;;;;;11.80;5.57;;;;;;;7.02;56.37;98934.75;5091705;28;20409;-48
2022/01/06 08:53:23;;;;;;;59.88;37.88;;;;;;;7.06;56.10;98944.69;5090371;28;20032;-49
2022/01/06 08:55:49;;;;;;;21.92;5.53;;;;;;;7.04;56.17;98938.00;5091708;28;20127;-48
2022/01/06 08:58:15;;;;;;;907.38;591.33;;;;;;;6.97;56.16;98936.09;5090321;28;20541;-48
2022/01/06 09:00:41;;;;;;;429.42;248.15;;;;;;;6.93;56.90;98939.22;5091592;28;20024;-48
2022/01/06 09:03:08;;;;;;;29.75;12.45;;;;;;;6.95;56.79;98940.66;5091573;28;20024;-49
2022/01/06 09:05:35;;;;;;;19.50;7.97;;;;;;;6.96;56.89;98941.47;5090193;28;20016;-48
2022/01/06 09:08:01;;;;;;;13.00;4.88;;;;;;;7.06;56.46;98936.03;5091562;28;20482;-48
2022/01/06 09:10:33;;;;;;;16.65;6.60;;;;;;;7.15;56.47;98935.03;5091507;28;20028;-48
2022/01/06 09:13:00;;;;;;;15.70;4.45;;;;;;;7.15;55.59;98942.84;5091546;28;20031;-48
2022/01/06 09:15:26;;;;;;;13.75;4.00;;;;;;;7.03;56.28;98937.22;5091498;28;20039;-48
2022/01/06 09:17:52;;;;;;;33.35;15.95;;;;;;;7.00;56.00;98929.72;5091451;28;20127;-48
2022/01/06 09:20:18;;;;;;;15.18;5.22;;;;;;;7.04;56.48;98936.22;5090218;28;20107;-48
2022/01/06 09:22:45;;;;;;;19.27;4.97;;;;;;;7.08;55.80;98939.28;5091440;28;20148;-48
2022/01/06 09:25:14;;;;;;;16.17;5.40;;;;;;;7.31;56.37;98936.72;5090977;28;20047;-49
2022/01/06 09:27:42;;;;;;;14.75;4.47;;;;;;;7.50;55.10;98938.06;5092857;28;20067;-47
2022/01/06 09:30:09;;;;;;;16.73;3.05;;;;;;;7.63;54.59;98937.50;5093759;28;20023;-49
2022/01/06 09:32:35;;;;;;;12.77;3.28;;;;;;;7.73;53.63;98938.06;5095138;28;20107;-49
2022/01/06 09:35:01;;;;;;;19.25;9.05;;;;;;;7.59;54.11;98940.44;5094966;28;20031;-48
2022/01/06 09:37:27;;;;;;;11.00;2.85;;;;;;;7.59;53.89;98937.84;5094994;28;20028;-48
2022/01/06 09:39:53;;;;;;;13.27;4.07;;;;;;;7.58;53.69;98930.97;5094949;28;20024;-48
2022/01/06 09:42:20;;;;;;;13.88;3.42;;;;;;;7.49;53.00;98932.03;5094857;28;20037;-48
2022/01/06 09:44:50;;;;;;;12.10;3.00;;;;;;;7.42;53.97;98946.75;5094771;28;20024;-48
2022/01/06 09:47:17;;;;;;;11.35;3.85;;;;;;;7.41;53.99;98947.75;5094768;28;20020;-48
2022/01/06 09:49:44;;;;;;;11.95;3.45;;;;;;;7.41;53.55;98947.75;5094764;28;20054;-49
2022/01/06 09:52:12;;;;;;;9.88;3.13;;;;;;;7.49;54.47;98947.69;5094623;28;20529;-48
2022/01/06 09:54:39;;;;;;;11.75;3.13;;;;;;;7.59;54.19;98943.06;5094729;28;20032;-48
2022/01/06 09:57:06;;;;;;;13.70;3.42;;;;;;;7.63;53.11;98938.31;5094559;28;20027;-48
2022/01/06 09:59:32;;;;;;;9.27;3.45;;;;;;;7.73;53.04;98943.28;5094615;28;20091;-48
2022/01/06 10:01:58;;;;;;;10.32;3.38;;;;;;;7.78;53.06;98951.41;5094488;28;20503;-48
2022/01/06 10:04:28;;;;;;;16.10;5.43;;;;;;;7.84;53.11;98952.50;5094417;28;20366;-48
2022/01/06 10:07:20;;;;;;;12.48;2.63;;;;;;;7.80;51.76;98950.22;5093141;28;20409;-48
2022/01/06 10:09:46;;;;;;;11.57;3.33;;;;;;;7.73;52.05;98965.00;5091359;28;20032;-49
2022/01/06 10:12:13;;;;;;;13.35;3.85;;;;;;;7.70;51.61;98956.69;5094321;28;20077;-47
2022/01/06 10:14:49;;;;;;;14.45;3.45;;;;;;;7.56;52.09;98948.63;5094301;28;20436;-48
2022/01/06 10:17:29;;;;;;;13.85;2.70;;;;;;;7.40;52.14;98954.78;5094244;28;20050;-49
2022/01/06 10:19:55;;;;;;;18.08;3.58;;;;;;;7.25;52.47;98956.50;5094168;28;20027;-48
2022/01/06 10:22:21;;;;;;;11.82;3.60;;;;;;;7.30;52.70;98955.97;5094149;28;20394;-48
2022/01/06 10:24:49;;;;;;;14.15;4.05;;;;;;;7.52;52.50;98954.38;5093714;28;20020;-49
2022/01/06 10:27:18;;;;;;;11.32;3.30;;;;;;;7.78;51.90;98952.22;5092725;28;20539;-49
2022/01/06 10:29:49;;;;;;;16.50;3.22;;;;;;;7.88;50.98;98943.31;5094011;28;20070;-48
2022/01/06 10:32:25;;;;;;;11.45;3.05;;;;;;;7.94;51.15;98925.13;5094037;28;20409;-48
2022/01/06 10:34:52;;;;;;;13.90;3.67;;;;;;;7.94;50.98;98934.78;5093949;28;20031;-49
2022/01/06 10:37:26;;;;;;;11.98;3.25;;;;;;;7.87;50.33;98945.13;5093826;28;20020;-49
2022/01/06 10:40:05;;;;;;;8.50;2.90;;;;;;;7.89;50.75;98929.28;5093635;28;20031;-48
2022/01/06 10:42:33;;;;;;;7.85;2.67;;;;;;;8.27;50.83;98945.75;5093752;28;20036;-48
2022/01/06 10:45:11;;;;;;;9.00;2.58;;;;;;;9.74;49.74;98931.78;5092247;28;20390;-49
2022/01/06 10:47:38;;;;;;;12.20;2.90;;;;;;;11.49;45.30;98921.94;5093699;28;20494;-48
2022/01/06 10:50:18;;;;;;;12.48;2.95;;;;;;;12.48;43.09;98923.75;5093602;28;20120;-48
2022/01/06 10:53:05;;;;;;;10.60;2.80;;;;;;;13.19;41.18;98920.22;5092566;28;20032;-48
2022/01/06 10:55:38;;;;;;;11.02;2.95;;;;;;;12.66;40.57;98911.75;5093504;28;20027;-49
2022/01/06 10:58:06;;;;;;;9.55;2.88;;;;;;;12.06;41.10;98914.53;5092163;28;20039;-48
2022/01/06 11:00:43;;;;;;;10.90;2.90;;;;;;;12.65;42.46;98905.66;5093440;28;20394;-49
2022/01/06 11:03:21;;;;;;;12.35;4.07;;;;;;;13.32;40.18;98914.09;5092075;28;20028;-48
2022/01/06 11:05:55;;;;;;;10.90;2.95;;;;;;;13.45;38.97;98910.56;5093334;28;20024;-49
2022/01/06 11:08:25;;;;;;;12.20;3.70;;;;;;;13.66;39.31;98903.31;5093346;28;20036;-49
2022/01/06 11:13:44;;;;;;;9.45;2.83;;;;;;;12.80;39.06;98908.06;5093204;28;20028;-49
2022/01/06 11:16:15;;;;;;;9.82;2.75;;;;;;;12.46;39.74;98907.34;5093121;28;20042;-49
2022/01/06 11:18:48;;;;;;;8.82;3.05;;;;;;;12.19;39.84;98902.16;5091857;28;20161;-49
2022/01/06 11:21:17;;;;;;;9.25;3.05;;;;;;;12.13;40.55;98913.50;5093093;28;20020;-48
2022/01/06 11:23:43;;;;;;;15.60;3.42;;;;;;;11.92;40.92;98911.09;5093094;28;20027;-48
2022/01/06 11:26:16;;;;;;;8.10;2.80;;;;;;;11.68;40.85;98912.47;5092627;28;20040;-49
2022/01/06 11:28:52;;;;;;;7.18;2.92;;;;;;;11.32;41.53;98908.38;5092968;28;20024;-48
2022/01/06 11:31:24;;;;;;;13.18;3.10;;;;;;;12.13;41.94;98910.03;5091544;28;20115;-48
2022/01/06 11:33:53;;;;;;;12.13;3.03;;;;;;;13.29;39.90;98906.59;5092786;28;20017;-49
2022/01/06 11:36:26;;;;;;;10.25;3.13;;;;;;;13.54;37.82;98897.91;5091421;28;20077;-49
2022/01/06 11:38:53;;;;;;;6.03;2.38;;;;;;;12.87;37.37;98898.28;5091398;28;20112;-49
2022/01/06 11:41:20;;;;;;;11.63;2.60;;;;;;;12.90;39.02;98900.50;5092665;28;20371;-49
2022/01/06 11:43:48;;;;;;;7.57;2.63;;;;;;;13.43;38.16;98899.41;5091299;28;20048;-49
2022/01/06 11:46:14;;;;;;;14.07;3.10;;;;;;;13.80;37.18;98899.53;5092386;28;20060;-49